Terminal Aerodrome Forecast
Issued by NWS

Home | Current Version | Previous Version | Text Only | Print | Product List | Glossary On
Versions: 1 2 3 4 5 6 7 8 9 10 11 12
000
FTUS45 KPIH 242000 AAB
TAFSUN
TAF AMD
KSUN 242018Z 2420/2518 31008KT 1SM -SN OVC004
     FM250600 32010KT 2SM -SN BR BKN012 OVC020
     FM250900 34010G20KT P6SM SCT025 BKN080=

USA.gov is the U.S. government's official web portal to all federal, state and local government web resources and services.